Andover, New York
Current Conditions -  °F | °C
As of 6:56 AM on Wednesday 26 Nov 2014 (Local Time) from KELZ Reporting Station
Overcast Overcast  
Wind Chill: 22°   Ceiling: 1200
Heat Index: 30°   Visibility: 10mi
Dew Point: 23°   Wind: 9mph
Humidity: 75%   Direction: 100°E
Pressure: 30.1"   Gusts: NA
Location:  42.16°N, 77.8°W
Report Text: KELZ 261156Z AUTO 10008KT 10SM OVC012 M01/M05 A3010 RMK AO2 SLP215 T10111050 11006 21011 56017
Loading
Personal Weather Stations






























Interactive Weather Map New forecast layout! Learn more

10-Day Weather Forecast

Advertisements
Track Severe Weather on mobile